Time;durP1;ratioP1;P1;durP2;ratioP2;P2;SDS_P1;SDS_P2;PMS_P1;PMS_P2;Temp;Humidity;BMP_temperature;BMP_pressure;BME280_temperature;BME280_humidity;BME280_pressure;Samples;Min_cycle;Max_cycle;Signal;HPM_P1;HPM_P2
2022/04/12 00:00:09;;;;;;;10.75;6.95;;;;;;;9.25;55.95;101079.59;5036434;28;20418;-36
2022/04/12 00:02:35;;;;;;;13.45;6.90;;;;;;;9.30;56.02;101072.66;5036025;28;20264;-34
2022/04/12 00:05:00;;;;;;;10.00;6.50;;;;;;;9.26;56.37;101071.75;5032791;28;20516;-35
2022/04/12 00:07:25;;;;;;;13.70;6.68;;;;;;;9.27;56.33;101065.59;5032388;28;20044;-36
2022/04/12 00:09:51;;;;;;;10.73;6.28;;;;;;;9.24;56.54;101055.03;5032244;28;20021;-35
2022/04/12 00:12:16;;;;;;;9.65;6.35;;;;;;;9.25;56.22;101050.69;5028293;28;20035;-34
2022/04/12 00:14:42;;;;;;;12.85;7.03;;;;;;;9.22;56.50;101045.34;5036013;28;20104;-33
2022/04/12 00:19:56;;;;;;;12.40;6.80;;;;;;;9.21;56.25;101046.22;5036408;28;20121;-35
2022/04/12 00:22:21;;;;;;;9.93;6.32;;;;;;;9.21;56.05;101046.22;5038461;28;20462;-35
2022/04/12 00:24:47;;;;;;;9.75;6.43;;;;;;;9.19;56.71;101042.69;5030852;28;20029;-35
2022/04/12 00:27:12;;;;;;;10.50;6.25;;;;;;;9.15;56.60;101042.66;5035457;28;20474;-35
2022/04/12 00:29:37;;;;;;;9.80;7.05;;;;;;;9.16;56.03;101035.63;5034089;28;20040;-38
2022/04/12 00:32:02;;;;;;;10.15;6.13;;;;;;;9.14;56.28;101039.97;5039280;28;20436;-36
2022/04/12 00:34:28;;;;;;;9.82;6.40;;;;;;;9.10;56.75;101032.88;5035009;28;20028;-35
2022/04/12 00:36:53;;;;;;;11.38;6.30;;;;;;;9.07;56.44;101032.84;5034514;28;20044;-35
2022/04/12 00:39:18;;;;;;;12.25;6.63;;;;;;;9.05;56.33;101031.91;5036560;28;20025;-34
2022/04/12 00:41:43;;;;;;;11.52;6.57;;;;;;;9.04;56.55;101030.16;5033757;28;20037;-33
2022/04/12 00:44:09;;;;;;;8.35;5.80;;;;;;;9.00;57.69;101032.72;5033518;28;20147;-35
2022/04/12 00:46:35;;;;;;;9.90;6.85;;;;;;;8.96;56.80;101044.00;5039082;28;20040;-33
2022/04/12 00:49:00;;;;;;;10.80;6.45;;;;;;;8.93;56.95;101033.47;5034822;28;20078;-36
2022/04/12 00:51:27;;;;;;;9.68;6.13;;;;;;;8.91;57.00;101036.91;5041920;28;20074;-36
2022/04/12 00:53:52;;;;;;;12.77;6.45;;;;;;;8.88;57.14;101048.25;5040909;28;20077;-34
2022/04/12 00:56:18;;;;;;;12.30;6.50;;;;;;;8.84;57.21;101043.78;5038389;28;20107;-35
2022/04/12 00:58:48;;;;;;;10.02;6.13;;;;;;;8.80;57.80;101044.59;5034951;28;20544;-38
2022/04/12 01:01:13;;;;;;;12.43;6.82;;;;;;;8.74;58.08;101044.44;5033058;28;20028;-37
2022/04/12 01:03:38;;;;;;;10.73;6.60;;;;;;;8.73;57.90;101046.19;5037326;28;20025;-34
2022/04/12 01:06:04;;;;;;;10.07;6.75;;;;;;;8.69;58.10;101046.97;5037213;28;20158;-34
2022/04/12 01:08:29;;;;;;;13.10;6.90;;;;;;;8.66;58.13;101046.91;5034541;28;20535;-34
2022/04/12 01:10:55;;;;;;;12.45;6.60;;;;;;;8.61;58.15;101049.47;5041918;28;20036;-34
2022/04/12 01:13:21;;;;;;;11.18;6.18;;;;;;;8.58;58.56;101044.13;5040207;28;20071;-35
2022/04/12 01:15:46;;;;;;;10.77;6.82;;;;;;;8.54;58.63;101037.03;5047124;28;20094;-35
2022/04/12 01:18:11;;;;;;;10.10;6.50;;;;;;;8.53;58.76;101040.50;5039109;28;20079;-35
2022/04/12 01:20:38;;;;;;;14.60;6.72;;;;;;;8.49;58.89;101028.19;5045026;28;20108;-37
2022/04/12 01:23:13;;;;;;;10.30;6.47;;;;;;;8.46;58.88;101036.00;5045036;28;20045;-36
2022/04/12 01:25:39;;;;;;;12.75;6.75;;;;;;;8.44;59.16;101035.94;5039239;28;20105;-33
2022/04/12 01:28:09;;;;;;;9.60;5.72;;;;;;;8.42;59.24;101031.50;5040411;28;20033;-33
2022/04/12 01:30:34;;;;;;;8.48;6.03;;;;;;;8.38;59.29;101034.94;5041354;28;20363;-35
2022/04/12 01:33:00;;;;;;;11.10;7.07;;;;;;;8.37;59.33;101041.03;5043290;28;20040;-35
2022/04/12 01:35:25;;;;;;;10.15;6.68;;;;;;;8.32;59.66;101038.28;5042916;28;20025;-33
2022/04/12 01:37:50;;;;;;;16.00;6.47;;;;;;;8.30;59.23;101030.38;5044220;28;20082;-35
2022/04/12 01:40:16;;;;;;;9.48;6.53;;;;;;;8.26;59.97;101031.16;5045909;28;20044;-33
2022/04/12 01:42:41;;;;;;;8.82;6.18;;;;;;;8.26;59.79;101041.66;5045192;28;20338;-35
2022/04/12 01:45:07;;;;;;;9.23;6.57;;;;;;;8.25;59.94;101036.38;5045093;28;20461;-34
2022/04/12 01:47:33;;;;;;;11.27;6.45;;;;;;;8.22;59.97;101021.47;5043260;28;20067;-34
2022/04/12 01:49:58;;;;;;;9.65;6.63;;;;;;;8.20;60.31;101028.41;5043819;28;20036;-34
2022/04/12 01:52:24;;;;;;;9.45;5.95;;;;;;;8.18;60.15;101030.13;5043706;28;20041;-35
2022/04/12 01:54:49;;;;;;;11.30;6.63;;;;;;;8.18;60.39;101024.88;5044106;28;20579;-36
2022/04/12 01:57:15;;;;;;;9.88;6.50;;;;;;;8.18;60.61;101027.50;5045924;28;20101;-35
2022/04/12 01:59:42;;;;;;;10.10;5.93;;;;;;;8.15;60.54;101019.56;5042326;28;20057;-35
2022/04/12 02:02:07;;;;;;;9.38;6.43;;;;;;;8.13;60.37;101008.13;5043339;28;20048;-36
2022/04/12 02:04:33;;;;;;;9.35;6.78;;;;;;;8.13;60.60;101010.75;5043634;28;20068;-33
2022/04/12 02:06:58;;;;;;;11.90;6.32;;;;;;;8.15;60.72;101006.44;5042340;28;20419;-37
2022/04/12 02:09:23;;;;;;;9.10;6.18;;;;;;;8.11;60.61;101005.50;5043410;28;20087;-37
2022/04/12 02:11:48;;;;;;;10.57;6.30;;;;;;;8.10;61.16;101008.97;5040867;28;20029;-33
2022/04/12 02:14:14;;;;;;;10.00;6.38;;;;;;;8.05;61.11;101018.47;5038790;28;21682;-35
2022/04/12 02:16:39;;;;;;;10.80;6.50;;;;;;;8.05;61.19;101015.84;5034230;28;20029;-34
2022/04/12 02:19:04;;;;;;;8.07;5.97;;;;;;;8.01;61.19;101012.25;5036815;28;20028;-33
2022/04/12 02:21:30;;;;;;;10.02;6.18;;;;;;;7.98;61.18;101017.44;5035888;28;20032;-35
2022/04/12 02:23:55;;;;;;;11.05;6.97;;;;;;;7.96;61.63;101018.25;5038458;28;20132;-37
2022/04/12 02:26:20;;;;;;;8.63;6.15;;;;;;;7.93;61.58;101019.06;5035522;28;20727;-33
2022/04/12 02:28:46;;;;;;;8.30;6.10;;;;;;;7.90;61.64;101011.13;5032374;28;20040;-35
2022/04/12 02:31:11;;;;;;;10.27;6.75;;;;;;;7.89;62.05;101021.59;5037299;28;20033;-35
2022/04/12 02:33:36;;;;;;;12.82;7.07;;;;;;;7.87;61.68;101015.41;5042560;28;20048;-33
2022/04/12 02:36:02;;;;;;;9.95;6.45;;;;;;;7.84;62.42;101013.59;5038567;28;20025;-34
2022/04/12 02:38:27;;;;;;;7.70;5.72;;;;;;;7.81;62.03;101009.16;5042073;28;20231;-34
2022/04/12 02:40:52;;;;;;;10.20;7.18;;;;;;;7.78;62.19;101003.88;5037189;28;20112;-35
2022/04/12 02:43:17;;;;;;;12.18;7.32;;;;;;;7.76;62.43;101005.56;5040625;28;20039;-35
2022/04/12 02:45:43;;;;;;;12.35;7.30;;;;;;;7.76;62.69;101007.31;5040076;28;20547;-35
2022/04/12 02:48:09;;;;;;;11.90;6.68;;;;;;;7.73;62.78;101005.50;5040010;28;20025;-34
2022/04/12 02:50:34;;;;;;;11.45;6.60;;;;;;;7.71;62.89;101004.56;5043975;28;20108;-33
2022/04/12 02:53:00;;;;;;;10.02;7.15;;;;;;;7.68;62.78;100997.50;5043649;28;20111;-34
2022/04/12 02:55:25;;;;;;;10.07;6.78;;;;;;;7.65;63.07;100997.44;5042461;28;20514;-33
2022/04/12 02:57:51;;;;;;;9.48;6.55;;;;;;;7.64;63.08;100992.16;5042246;28;20565;-35
2022/04/12 03:00:16;;;;;;;14.15;7.82;;;;;;;7.61;63.44;100986.84;5038558;28;20036;-33
2022/04/12 03:02:42;;;;;;;11.55;6.85;;;;;;;7.58;63.28;100979.81;5040630;28;20021;-32
2022/04/12 03:05:08;;;;;;;8.88;6.53;;;;;;;7.58;63.30;100977.19;5043094;28;20112;-34
2022/04/12 03:07:33;;;;;;;11.13;6.80;;;;;;;7.59;63.31;100978.06;5038151;28;20052;-34
2022/04/12 03:09:58;;;;;;;11.38;7.32;;;;;;;7.56;63.43;100978.88;5037498;28;20044;-35
2022/04/12 03:12:23;;;;;;;10.80;7.38;;;;;;;7.55;63.98;100984.06;5037741;28;20032;-35
2022/04/12 03:14:49;;;;;;;11.80;7.47;;;;;;;7.49;63.89;100975.22;5034416;28;20057;-33
2022/04/12 03:17:14;;;;;;;11.50;6.97;;;;;;;7.49;63.83;100971.72;5036588;28;20428;-34
2022/04/12 03:19:39;;;;;;;10.45;6.78;;;;;;;7.44;64.16;100968.09;5036412;28;20033;-36
2022/04/12 03:22:05;;;;;;;14.57;7.55;;;;;;;7.41;64.13;100961.03;5036143;28;20016;-34
2022/04/12 03:24:31;;;;;;;11.65;7.43;;;;;;;7.37;64.32;100967.06;5036381;28;20413;-35
2022/04/12 03:26:57;;;;;;;11.85;7.40;;;;;;;7.35;64.54;100966.13;5035857;28;20275;-33
2022/04/12 03:29:22;;;;;;;10.98;6.80;;;;;;;7.35;64.41;100953.03;5032686;28;20086;-33
2022/04/12 03:31:48;;;;;;;12.18;7.03;;;;;;;7.34;64.71;100949.53;5031508;28;20028;-38
2022/04/12 03:34:13;;;;;;;13.27;7.30;;;;;;;7.34;64.56;100952.16;5035777;28;20619;-33
2022/04/12 03:36:38;;;;;;;12.45;7.47;;;;;;;7.32;64.87;100956.44;5033324;28;20386;-33
2022/04/12 03:39:10;;;;;;;16.20;7.97;;;;;;;7.30;64.74;100966.03;5038748;28;20029;-34
2022/04/12 03:41:36;;;;;;;13.25;7.50;;;;;;;7.29;65.11;100955.47;5035384;28;20043;-34
2022/04/12 03:44:01;;;;;;;14.30;7.95;;;;;;;7.26;65.43;100955.41;5032573;28;20021;-32
2022/04/12 03:46:26;;;;;;;13.30;7.20;;;;;;;7.26;65.24;100961.56;5036887;28;20068;-33
2022/04/12 03:48:51;;;;;;;12.13;7.43;;;;;;;7.25;65.29;100962.41;5032211;28;20104;-34
2022/04/12 03:51:17;;;;;;;13.45;7.68;;;;;;;7.23;65.23;100965.84;5032358;28;20027;-34
2022/04/12 03:53:42;;;;;;;15.93;8.13;;;;;;;7.21;65.53;100965.78;5033525;28;20564;-33
2022/04/12 03:56:08;;;;;;;11.73;7.53;;;;;;;7.20;65.79;100958.78;5034503;28;20075;-36
2022/04/12 03:58:35;;;;;;;15.38;8.20;;;;;;;7.14;66.02;100938.56;5037330;28;20032;-35
2022/04/12 04:01:02;;;;;;;14.75;7.75;;;;;;;7.16;66.19;100933.34;5030007;28;20433;-38
2022/04/12 04:03:27;;;;;;;12.50;7.15;;;;;;;7.15;65.97;100931.56;5035213;28;20021;-35
2022/04/12 04:05:52;;;;;;;12.85;7.30;;;;;;;7.16;66.65;100935.97;5034536;28;20035;-34
2022/04/12 04:08:18;;;;;;;11.57;7.28;;;;;;;7.16;66.58;100933.34;5033098;28;20433;-39
2022/04/12 04:10:43;;;;;;;14.30;7.68;;;;;;;7.17;66.31;100943.88;5032583;28;20025;-34
2022/04/12 04:13:08;;;;;;;11.90;6.90;;;;;;;7.22;66.19;100936.09;5031271;28;20136;-35
2022/04/12 04:15:40;;;;;;;13.00;7.70;;;;;;;7.25;66.17;100930.97;5033178;28;20024;-33
2022/04/12 04:18:09;;;;;;;12.13;7.72;;;;;;;7.27;66.70;100936.22;5034258;28;20479;-33
2022/04/12 04:20:34;;;;;;;12.00;7.72;;;;;;;7.25;67.11;100943.16;5030910;28;20326;-35
2022/04/12 04:23:00;;;;;;;13.13;8.02;;;;;;;7.25;66.64;100946.69;5034535;28;20069;-34
2022/04/12 04:25:26;;;;;;;13.68;7.90;;;;;;;7.26;66.79;100940.59;5029139;28;20033;-36
2022/04/12 04:27:52;;;;;;;13.85;7.85;;;;;;;7.27;66.91;100947.59;5033096;28;20033;-34
2022/04/12 04:30:18;;;;;;;12.63;7.43;;;;;;;7.28;66.85;100943.25;5028412;28;20123;-35
2022/04/12 04:32:43;;;;;;;13.82;8.55;;;;;;;7.29;66.82;100938.03;5031809;28;20630;-34
2022/04/12 04:35:09;;;;;;;11.65;8.43;;;;;;;7.30;67.33;100952.94;5033407;28;20051;-34
2022/04/12 04:37:48;;;;;;;13.82;8.98;;;;;;;7.31;66.64;100959.03;5030161;28;20068;-32
2022/04/12 04:40:15;;;;;;;12.23;7.40;;;;;;;7.26;67.16;100953.69;5030350;28;20031;-36
2022/04/12 04:42:42;;;;;;;16.48;8.55;;;;;;;7.28;67.39;100949.38;5032144;28;20102;-34
2022/04/12 04:45:08;;;;;;;16.65;8.02;;;;;;;7.28;67.27;100944.13;5034325;28;20114;-35
2022/04/12 04:47:34;;;;;;;16.42;8.70;;;;;;;7.24;67.31;100944.91;5038605;28;20029;-37
2022/04/12 04:49:59;;;;;;;15.10;7.70;;;;;;;7.25;67.31;100946.69;5043050;28;20483;-36
2022/04/12 04:52:24;;;;;;;16.85;8.82;;;;;;;7.23;67.48;100953.59;5041188;28;20040;-34
2022/04/12 04:54:51;;;;;;;11.90;7.80;;;;;;;7.21;67.57;100971.03;5034307;28;20392;-35
2022/04/12 04:57:16;;;;;;;16.50;8.45;;;;;;;7.19;68.01;100974.47;5045640;28;20064;-34
2022/04/12 04:59:41;;;;;;;15.25;8.57;;;;;;;7.19;67.70;100975.34;5039406;28;20095;-36
2022/04/12 05:02:06;;;;;;;17.00;8.13;;;;;;;7.17;67.73;100982.28;5040438;28;20032;-33
2022/04/12 05:04:32;;;;;;;16.58;9.48;;;;;;;7.16;68.32;100977.88;5040854;28;20449;-34
2022/04/12 05:06:57;;;;;;;15.30;8.75;;;;;;;7.17;68.42;100990.16;5040419;28;20041;-35
2022/04/12 05:09:22;;;;;;;15.65;8.50;;;;;;;7.15;68.37;100997.06;5043255;28;20524;-37
2022/04/12 05:11:47;;;;;;;16.50;8.70;;;;;;;7.16;68.25;100991.84;5046024;28;20044;-34
2022/04/12 05:14:13;;;;;;;15.27;9.23;;;;;;;7.17;68.86;100980.53;5037424;28;20337;-34
2022/04/12 05:16:38;;;;;;;15.38;8.43;;;;;;;7.20;68.56;100974.50;5041789;28;20049;-33
2022/04/12 05:19:04;;;;;;;17.65;9.35;;;;;;;7.23;68.55;100966.72;5042182;28;20028;-34
2022/04/12 05:21:29;;;;;;;19.35;9.82;;;;;;;7.24;68.84;100968.47;5035010;28;20079;-33
2022/04/12 05:23:55;;;;;;;18.15;10.00;;;;;;;7.27;68.79;100967.69;5039933;28;20108;-34
2022/04/12 05:26:21;;;;;;;15.55;8.63;;;;;;;7.29;68.74;100969.50;5044696;28;20371;-35
2022/04/12 05:28:46;;;;;;;16.33;9.40;;;;;;;7.31;69.03;100970.41;5044508;28;20044;-33
2022/04/12 05:31:11;;;;;;;20.50;9.60;;;;;;;7.33;69.37;100970.47;5038041;28;20033;-33
2022/04/12 05:33:36;;;;;;;17.48;9.52;;;;;;;7.34;68.97;100962.63;5045970;28;20037;-33
2022/04/12 05:36:02;;;;;;;20.95;9.75;;;;;;;7.39;68.88;100957.47;5043825;28;20032;-35
2022/04/12 05:38:27;;;;;;;18.50;9.52;;;;;;;7.43;68.58;100961.94;5046365;28;20056;-35
2022/04/12 05:40:54;;;;;;;18.17;9.75;;;;;;;7.46;68.35;100961.13;5045695;28;20094;-34
2022/04/12 05:43:19;;;;;;;18.85;10.00;;;;;;;7.48;68.68;100956.84;5042347;28;20025;-34
2022/04/12 05:45:44;;;;;;;22.40;9.77;;;;;;;7.49;68.50;100953.38;5042726;28;20035;-34
2022/04/12 05:48:10;;;;;;;17.42;9.77;;;;;;;7.51;68.21;100954.28;5044604;28;20029;-35
2022/04/12 05:50:35;;;;;;;21.98;10.27;;;;;;;7.54;68.13;100963.94;5044243;28;20393;-34
2022/04/12 05:53:00;;;;;;;18.08;10.30;;;;;;;7.54;68.55;100970.09;5044585;28;20029;-34
2022/04/12 05:55:29;;;;;;;19.58;9.65;;;;;;;7.56;68.41;100968.38;5041505;28;20036;-38
2022/04/12 05:57:56;;;;;;;17.70;9.77;;;;;;;7.57;68.44;100970.16;5042404;28;20495;-37
2022/04/12 06:00:23;;;;;;;17.77;9.23;;;;;;;7.63;68.19;100977.28;5040967;28;20029;-33
2022/04/12 06:02:51;;;;;;;21.90;11.02;;;;;;;7.67;68.61;100971.25;5042153;28;20553;-35
2022/04/12 06:05:18;;;;;;;16.77;10.13;;;;;;;7.78;68.43;100974.13;5042330;28;20041;-35
2022/04/12 06:07:44;;;;;;;18.52;10.43;;;;;;;7.90;68.13;100974.41;5035116;28;20037;-35
2022/04/12 06:10:10;;;;;;;21.40;10.98;;;;;;;8.11;67.74;100973.09;5031503;28;20218;-33
2022/04/12 06:12:36;;;;;;;20.33;10.27;;;;;;;8.40;66.97;100979.00;5033615;28;20029;-34
2022/04/12 06:15:03;;;;;;;20.05;11.55;;;;;;;8.50;65.90;100977.47;5036352;28;20029;-37
2022/04/12 06:17:29;;;;;;;23.88;10.95;;;;;;;8.55;66.20;100978.44;5039645;28;20041;-33
2022/04/12 06:19:59;;;;;;;25.33;11.88;;;;;;;8.64;65.95;100976.00;5037865;28;20151;-32
2022/04/12 06:22:24;;;;;;;19.95;10.43;;;;;;;8.89;66.39;100980.81;5033194;28;20025;-35
2022/04/12 06:24:49;;;;;;;19.42;11.55;;;;;;;9.45;64.68;100966.91;5041229;28;20198;-36
2022/04/12 06:27:14;;;;;;;21.80;10.43;;;;;;;10.03;63.78;100968.63;5041604;28;20029;-35
2022/04/12 06:29:40;;;;;;;28.75;12.13;;;;;;;10.49;62.29;100967.50;5039261;28;20041;-33
2022/04/12 06:32:05;;;;;;;20.92;12.10;;;;;;;10.74;60.09;100959.91;5035385;28;20031;-33
2022/04/12 06:34:31;;;;;;;23.38;12.73;;;;;;;10.80;59.56;100964.34;5041939;28;20060;-35
2022/04/12 06:36:56;;;;;;;27.88;12.57;;;;;;;10.88;58.90;100970.56;5032669;28;20494;-37
2022/04/12 06:39:21;;;;;;;24.92;12.05;;;;;;;11.10;60.77;100963.75;5037684;28;20024;-34
2022/04/12 06:41:46;;;;;;;18.80;11.70;;;;;;;11.41;60.04;100963.13;5043570;28;20033;-34
2022/04/12 06:44:12;;;;;;;20.85;11.63;;;;;;;11.58;58.30;100958.00;5037580;28;20530;-36
2022/04/12 06:46:37;;;;;;;21.35;12.00;;;;;;;11.67;57.74;100964.22;5032624;28;20033;-34
2022/04/12 06:49:02;;;;;;;21.98;13.73;;;;;;;11.88;58.95;100970.50;5040553;28;20090;-36
2022/04/12 06:51:28;;;;;;;22.58;12.85;;;;;;;11.90;57.60;100974.03;5040898;28;20669;-34
2022/04/12 06:53:53;;;;;;;21.27;11.93;;;;;;;12.01;57.26;100958.28;5042910;28;20087;-36
2022/04/12 06:56:18;;;;;;;25.95;12.95;;;;;;;12.20;57.72;100958.38;5043567;28;20067;-34
2022/04/12 06:58:43;;;;;;;35.20;14.18;;;;;;;12.33;56.57;100949.66;5039271;28;20082;-37
2022/04/12 07:01:09;;;;;;;25.73;14.73;;;;;;;12.54;57.07;100959.41;5036707;28;20722;-36
2022/04/12 07:03:34;;;;;;;25.50;14.73;;;;;;;12.78;56.40;100962.97;5041556;28;20094;-38
2022/04/12 07:05:59;;;;;;;30.17;15.48;;;;;;;13.01;56.47;100952.47;5030728;28;20052;-35
2022/04/12 07:08:25;;;;;;;33.05;16.20;;;;;;;13.04;54.67;100949.81;5039817;28;20033;-34
2022/04/12 07:10:50;;;;;;;29.95;16.10;;;;;;;13.06;54.88;100953.34;5040411;28;20028;-35
2022/04/12 07:13:16;;;;;;;29.85;16.80;;;;;;;13.20;56.14;100953.34;5034998;28;20112;-34
2022/04/12 07:15:42;;;;;;;27.70;15.27;;;;;;;13.33;56.81;100952.50;5033915;28;20031;-36
2022/04/12 07:18:07;;;;;;;31.00;16.05;;;;;;;13.62;56.00;100953.38;5042459;28;20031;-36
2022/04/12 07:20:32;;;;;;;30.98;15.88;;;;;;;13.79;53.62;100951.56;5038160;28;20025;-34
2022/04/12 07:22:58;;;;;;;30.02;15.90;;;;;;;13.96;54.47;100946.25;5043478;28;20068;-35
2022/04/12 07:25:23;;;;;;;29.85;15.80;;;;;;;13.88;52.80;100955.06;5040099;28;20360;-34
2022/04/12 07:27:48;;;;;;;32.08;15.80;;;;;;;13.87;53.52;100953.34;5041147;28;20033;-35
2022/04/12 07:30:14;;;;;;;27.40;14.85;;;;;;;13.82;54.40;100956.88;5034040;28;20118;-37
2022/04/12 07:32:39;;;;;;;30.73;15.40;;;;;;;13.81;53.26;100948.91;5042280;28;20024;-35
2022/04/12 07:35:06;;;;;;;31.42;16.45;;;;;;;13.82;53.38;100954.22;5033337;28;20061;-33
2022/04/12 07:37:31;;;;;;;29.17;15.88;;;;;;;13.83;52.77;100949.81;5030917;28;20104;-35
2022/04/12 07:39:56;;;;;;;32.60;15.98;;;;;;;14.08;54.78;100947.97;5040131;28;20529;-34
2022/04/12 07:42:23;;;;;;;34.33;15.60;;;;;;;14.38;54.58;100947.84;5039873;28;20032;-34
2022/04/12 07:44:48;;;;;;;33.08;15.85;;;;;;;14.32;52.74;100941.69;5040794;28;20458;-34
2022/04/12 07:47:14;;;;;;;31.00;16.92;;;;;;;14.56;54.29;100942.47;5034207;28;20043;-35
2022/04/12 07:49:39;;;;;;;28.58;15.25;;;;;;;14.55;53.19;100943.34;5040354;28;20037;-36
2022/04/12 07:52:05;;;;;;;30.10;15.00;;;;;;;14.64;52.21;100945.09;5039321;28;20406;-35
2022/04/12 07:54:30;;;;;;;26.85;14.10;;;;;;;14.78;51.25;100935.31;5042166;28;20044;-36
2022/04/12 07:56:55;;;;;;;29.30;14.05;;;;;;;14.85;51.72;100938.78;5043722;28;20039;-37
2022/04/12 07:59:21;;;;;;;30.90;14.07;;;;;;;15.03;51.91;100935.16;5040496;28;20378;-36
2022/04/12 08:01:46;;;;;;;28.08;14.02;;;;;;;15.18;51.43;100938.56;5036047;28;20329;-37
2022/04/12 08:04:11;;;;;;;32.85;14.07;;;;;;;15.39;51.75;100937.50;5037970;28;20402;-35
2022/04/12 08:06:38;;;;;;;29.67;13.98;;;;;;;15.45;51.11;100941.00;5038739;28;20064;-34
2022/04/12 08:09:04;;;;;;;25.60;12.85;;;;;;;15.60;51.72;100945.25;5040679;28;20108;-35
2022/04/12 08:11:30;;;;;;;25.33;14.15;;;;;;;15.57;51.29;100950.63;5042396;28;20127;-35
2022/04/12 08:13:55;;;;;;;28.75;13.43;;;;;;;15.77;51.95;100942.44;5042318;28;20036;-35
2022/04/12 08:16:21;;;;;;;26.17;14.18;;;;;;;15.86;51.02;100940.59;5040653;28;20395;-38
2022/04/12 08:18:46;;;;;;;29.52;13.40;;;;;;;15.93;51.06;100948.50;5037198;28;20386;-34
2022/04/12 08:21:11;;;;;;;26.30;13.07;;;;;;;15.95;50.02;100945.81;5040674;28;20395;-36
2022/04/12 08:23:37;;;;;;;27.20;13.75;;;;;;;16.05;50.10;100946.59;5042249;28;21992;-35
2022/04/12 08:26:02;;;;;;;25.98;12.55;;;;;;;16.08;50.21;100944.78;5041063;28;20063;-34
2022/04/12 08:28:27;;;;;;;25.02;11.98;;;;;;;16.29;48.86;100948.09;5041087;28;20398;-37
2022/04/12 08:30:53;;;;;;;22.35;10.95;;;;;;;16.27;48.89;100945.47;5034518;28;20395;-36
2022/04/12 08:33:18;;;;;;;22.35;10.07;;;;;;;16.36;48.95;100943.56;5040596;28;20036;-38
2022/04/12 08:35:43;;;;;;;20.55;10.00;;;;;;;16.30;48.00;100940.09;5038085;28;20032;-34
2022/04/12 08:38:10;;;;;;;21.75;10.38;;;;;;;16.34;48.05;100951.56;5034946;28;20111;-36
2022/04/12 08:40:36;;;;;;;17.98;9.45;;;;;;;16.36;47.37;100943.56;5038060;28;20524;-35
2022/04/12 08:43:01;;;;;;;18.65;10.57;;;;;;;16.42;47.53;100947.03;5039536;28;20028;-37
2022/04/12 08:45:27;;;;;;;18.75;9.43;;;;;;;16.58;48.29;100946.84;5038854;28;20045;-39
2022/04/12 08:47:52;;;;;;;21.58;11.55;;;;;;;16.69;47.00;100931.59;5041077;28;20035;-35
2022/04/12 08:50:20;;;;;;;19.92;10.07;;;;;;;16.70;47.26;100914.72;5036416;28;20456;-38
2022/04/12 08:52:46;;;;;;;22.17;9.95;;;;;;;16.72;46.86;100910.28;5038909;28;20021;-36
2022/04/12 08:55:11;;;;;;;23.75;10.63;;;;;;;16.74;46.74;100905.81;5036639;28;20080;-34
2022/04/12 08:57:37;;;;;;;24.83;10.68;;;;;;;16.83;46.92;100912.78;5038208;28;20518;-35
2022/04/12 09:00:05;;;;;;;22.30;9.57;;;;;;;16.94;46.37;100917.97;5038322;28;20060;-37
2022/04/12 09:02:30;;;;;;;23.60;10.15;;;;;;;16.96;46.79;100906.41;5038439;28;20054;-35
2022/04/12 09:04:55;;;;;;;19.33;10.15;;;;;;;17.05;47.21;100905.34;5031504;28;20537;-34
2022/04/12 09:07:28;;;;;;;23.52;10.32;;;;;;;17.24;47.49;100897.94;5028025;28;20041;-34
2022/04/12 09:10:06;;;;;;;25.15;10.02;;;;;;;17.30;47.14;100907.59;5037505;28;20032;-34
2022/04/12 09:12:35;;;;;;;18.90;9.77;;;;;;;17.38;47.75;100903.00;5038844;28;20025;-36
2022/04/12 09:15:01;;;;;;;20.02;9.23;;;;;;;17.41;45.70;100918.06;5033327;28;20037;-35
2022/04/12 09:17:36;;;;;;;28.85;10.57;;;;;;;17.48;46.03;100903.75;5040854;28;20033;-35
2022/04/12 09:20:10;;;;;;;23.17;9.80;;;;;;;17.59;46.50;100908.88;5037630;28;20033;-36
2022/04/12 09:22:35;;;;;;;21.70;10.05;;;;;;;17.63;46.08;100898.13;5040634;28;20058;-36
2022/04/12 09:25:02;;;;;;;20.83;9.30;;;;;;;17.82;46.58;100890.66;5042045;28;20021;-35
2022/04/12 09:27:30;;;;;;;24.55;9.68;;;;;;;17.84;44.58;100882.63;5038792;28;20048;-36
2022/04/12 09:29:57;;;;;;;17.55;9.52;;;;;;;17.91;46.22;100881.63;5035693;28;20499;-36
2022/04/12 09:32:24;;;;;;;22.30;10.30;;;;;;;18.05;45.54;100878.69;5041165;28;20037;-33
2022/04/12 09:34:51;;;;;;;18.60;8.93;;;;;;;18.24;45.51;100871.16;5041560;28;20505;-34
2022/04/12 09:37:38;;;;;;;20.30;10.05;;;;;;;18.39;45.60;100869.97;5045573;28;20509;-34
2022/04/12 09:40:06;;;;;;;19.40;9.75;;;;;;;18.37;45.11;100866.44;5043844;28;20513;-34
2022/04/12 09:42:54;;;;;;;18.25;9.57;;;;;;;18.37;45.28;100868.25;5043601;28;20028;-36
2022/04/12 09:45:30;;;;;;;19.27;9.48;;;;;;;18.47;46.24;100867.13;5035808;28;20033;-37
2022/04/12 09:48:03;;;;;;;18.60;9.57;;;;;;;18.56;44.76;100863.34;5042986;28;20067;-36
2022/04/12 09:50:30;;;;;;;18.48;9.20;;;;;;;18.53;44.84;100880.28;5041431;28;20027;-34
2022/04/12 09:52:58;;;;;;;19.15;9.63;;;;;;;18.69;44.62;100875.47;5045375;28;20036;-34
2022/04/12 09:55:43;;;;;;;17.88;9.55;;;;;;;18.77;45.37;100872.63;5039552;28;20056;-36
2022/04/12 09:58:14;;;;;;;21.05;9.75;;;;;;;18.77;44.89;100878.88;5038595;28;20032;-41
2022/04/12 10:00:41;;;;;;;20.10;9.85;;;;;;;18.77;44.04;100876.19;5039396;28;21346;-37
2022/04/12 10:03:10;;;;;;;19.02;8.65;;;;;;;18.79;44.57;100876.16;5044355;28;20025;-36
2022/04/12 10:05:36;;;;;;;19.70;9.48;;;;;;;18.79;43.42;100882.34;5040605;28;20032;-34
2022/04/12 10:08:06;;;;;;;22.75;9.55;;;;;;;18.88;43.90;100886.59;5023310;28;20033;-34
2022/04/12 10:10:32;;;;;;;15.07;8.50;;;;;;;19.09;45.87;100885.22;5037633;28;20079;-34
2022/04/12 10:12:59;;;;;;;19.42;9.63;;;;;;;19.09;43.67;100879.00;5035764;28;20029;-37
2022/04/12 10:15:27;;;;;;;20.38;9.45;;;;;;;19.05;43.25;100869.31;5032884;28;20743;-34
2022/04/12 10:17:53;;;;;;;23.50;9.60;;;;;;;19.06;45.31;100866.59;5033116;28;20116;-35
2022/04/12 10:20:19;;;;;;;20.30;9.98;;;;;;;19.01;43.35;100862.31;5031540;28;20029;-34
2022/04/12 10:22:45;;;;;;;23.75;9.50;;;;;;;18.93;44.22;100847.38;5040909;28;20467;-34
2022/04/12 10:25:14;;;;;;;19.38;9.95;;;;;;;19.08;45.54;100842.56;5040720;28;20426;-35
2022/04/12 10:27:40;;;;;;;20.75;10.38;;;;;;;19.13;44.49;100836.19;5042112;28;20025;-33
2022/04/12 10:30:21;;;;;;;16.95;9.98;;;;;;;19.09;44.76;100837.19;5041243;28;20035;-36
2022/04/12 10:33:28;;;;;;;24.75;10.52;;;;;;;19.10;44.56;100832.69;5036408;28;20025;-36
2022/04/12 10:35:55;;;;;;;19.42;9.63;;;;;;;19.14;45.38;100837.03;5034253;28;20502;-34
2022/04/12 10:38:26;;;;;;;19.70;11.40;;;;;;;19.02;43.33;100832.91;5039053;28;20409;-34
2022/04/12 10:40:54;;;;;;;16.08;9.45;;;;;;;19.00;44.67;100839.19;5042569;28;20501;-35
2022/04/12 10:43:35;;;;;;;25.58;9.63;;;;;;;19.06;43.57;100841.72;5037111;28;20365;-35
2022/04/12 10:46:02;;;;;;;24.23;10.60;;;;;;;18.89;44.26;100835.03;5042766;28;20029;-35
2022/04/12 10:48:29;;;;;;;21.80;10.90;;;;;;;18.79;45.25;100837.00;5041353;28;20095;-35
2022/04/12 10:50:56;;;;;;;19.83;10.55;;;;;;;18.82;45.86;100830.72;5040185;28;20040;-35
2022/04/12 10:53:36;;;;;;;24.10;10.80;;;;;;;18.93;45.50;100822.47;5042804;28;20684;-36
2022/04/12 10:56:15;;;;;;;20.83;10.48;;;;;;;18.94;44.70;100822.41;5040290;28;20229;-35
2022/04/12 10:58:43;;;;;;;27.38;11.00;;;;;;;19.02;43.81;100818.69;5041526;28;20092;-36
2022/04/12 11:01:27;;;;;;;21.33;9.85;;;;;;;19.19;45.43;100815.56;5040901;28;20036;-34
2022/04/12 11:03:54;;;;;;;20.65;10.10;;;;;;;19.17;43.64;100802.28;5038028;28;20479;-34
2022/04/12 11:06:25;;;;;;;19.30;9.73;;;;;;;19.16;44.74;100803.19;5035628;28;20064;-34
2022/04/12 11:08:54;;;;;;;24.92;11.05;;;;;;;19.14;43.97;100805.00;5040671;28;20453;-33
2022/04/12 11:11:41;;;;;;;20.33;10.52;;;;;;;19.13;44.46;100811.25;5040121;28;20053;-34
2022/04/12 11:14:28;;;;;;;17.90;9.32;;;;;;;19.12;44.24;100820.19;5039920;28;20387;-37
2022/04/12 11:17:02;;;;;;;21.48;10.05;;;;;;;19.08;44.24;100829.22;5029052;28;20110;-35
2022/04/12 11:19:28;;;;;;;18.02;10.20;;;;;;;19.13;44.91;100829.94;5037873;28;20047;-36